Time;durP1;ratioP1;P1;durP2;ratioP2;P2;SDS_P1;SDS_P2;PMS_P1;PMS_P2;Temp;Humidity;BMP_temperature;BMP_pressure;BME280_temperature;BME280_humidity;BME280_pressure;Samples;Min_cycle;Max_cycle;Signal;HPM_P1;HPM_P2
2021/03/10 00:01:30;;;;;;;51.53;28.98;;;4.20;99.90;;;;;;5009175;28;20026;-58
2021/03/10 00:03:55;;;;;;;43.50;23.38;;;4.30;99.90;;;;;;5014935;28;20025;-60
2021/03/10 00:06:21;;;;;;;44.28;26.25;;;4.20;99.90;;;;;;5013503;28;20488;-60
2021/03/10 00:08:46;;;;;;;86.88;40.60;;;4.30;99.90;;;;;;5015881;28;20018;-61
2021/03/10 00:11:12;;;;;;;95.40;46.10;;;4.30;99.90;;;;;;5013472;28;20034;-58
2021/03/10 00:13:38;;;;;;;84.25;37.85;;;4.30;99.90;;;;;;5012278;28;20045;-59
2021/03/10 00:16:03;;;;;;;86.97;37.83;;;4.30;99.90;;;;;;4992976;28;20052;-60
2021/03/10 00:18:29;;;;;;;90.45;37.65;;;4.30;99.90;;;;;;5003164;28;20030;-60
2021/03/10 00:20:55;;;;;;;40.47;22.20;;;4.30;99.90;;;;;;5006750;28;20329;-62
2021/03/10 00:23:20;;;;;;;351.60;30.92;;;4.30;99.90;;;;;;5012593;28;20483;-61
2021/03/10 00:25:46;;;;;;;160.68;22.27;;;4.30;99.90;;;;;;5008538;28;20472;-59
2021/03/10 00:28:11;;;;;;;124.50;21.42;;;4.30;99.90;;;;;;5008052;28;20026;-61
2021/03/10 00:30:37;;;;;;;47.42;19.13;;;4.20;99.90;;;;;;5011850;28;20025;-60
2021/03/10 00:33:02;;;;;;;43.50;19.05;;;4.10;99.90;;;;;;5007670;28;20571;-60
2021/03/10 00:35:29;;;;;;;32.28;19.08;;;4.10;99.90;;;;;;5019477;28;20038;-60
2021/03/10 00:37:54;;;;;;;47.45;19.90;;;4.10;99.90;;;;;;5012859;28;20018;-60
2021/03/10 00:40:20;;;;;;;35.97;19.08;;;4.00;99.90;;;;;;5008936;28;20041;-61
2021/03/10 00:42:45;;;;;;;58.85;22.23;;;4.00;99.90;;;;;;5010408;28;20093;-60
2021/03/10 00:45:12;;;;;;;33.33;20.60;;;4.00;99.90;;;;;;5019008;28;20025;-60
2021/03/10 00:47:37;;;;;;;35.15;20.60;;;4.00;99.90;;;;;;5022564;28;20030;-58
2021/03/10 00:50:03;;;;;;;30.90;19.77;;;4.00;99.90;;;;;;5016110;28;20038;-59
2021/03/10 00:52:29;;;;;;;38.33;21.90;;;4.00;99.90;;;;;;5009897;28;20049;-60
2021/03/10 00:54:54;;;;;;;29.58;18.88;;;4.00;99.90;;;;;;5006526;28;20038;-60
2021/03/10 00:57:20;;;;;;;29.02;18.75;;;4.00;99.90;;;;;;5013358;28;20068;-60
2021/03/10 00:59:45;;;;;;;31.83;19.33;;;4.00;99.90;;;;;;5011780;28;20038;-61
2021/03/10 01:02:11;;;;;;;31.35;19.55;;;4.00;99.90;;;;;;5017745;28;20687;-58
2021/03/10 01:04:37;;;;;;;33.05;20.48;;;3.90;99.90;;;;;;5014125;28;20025;-59
2021/03/10 01:07:02;;;;;;;36.70;22.17;;;4.00;99.90;;;;;;4991097;28;20604;-60
2021/03/10 01:09:28;;;;;;;42.53;23.00;;;4.00;99.90;;;;;;5010255;28;20081;-61
2021/03/10 01:11:53;;;;;;;33.97;21.27;;;3.90;99.90;;;;;;5012743;28;20467;-59
2021/03/10 01:14:19;;;;;;;40.78;23.95;;;3.90;99.90;;;;;;5005562;28;20030;-60
2021/03/10 01:16:44;;;;;;;38.63;23.08;;;3.90;99.90;;;;;;4998493;28;20049;-60
2021/03/10 01:19:10;;;;;;;39.70;22.63;;;3.80;99.90;;;;;;5009450;28;20577;-59
2021/03/10 01:21:36;;;;;;;36.72;22.23;;;3.80;99.90;;;;;;5010737;28;20472;-62
2021/03/10 01:24:03;;;;;;;40.35;24.15;;;3.70;99.90;;;;;;5013452;28;20464;-60
2021/03/10 01:26:28;;;;;;;36.15;22.77;;;3.70;99.90;;;;;;5018472;28;20329;-57
2021/03/10 01:28:54;;;;;;;36.83;21.20;;;3.70;99.90;;;;;;5000640;28;20045;-58
2021/03/10 01:31:19;;;;;;;35.88;20.73;;;3.70;99.90;;;;;;5009162;28;20057;-61
2021/03/10 01:33:45;;;;;;;36.63;21.80;;;3.60;99.90;;;;;;4997284;28;20049;-62
2021/03/10 01:36:11;;;;;;;37.30;22.25;;;3.70;99.90;;;;;;5016984;28;20554;-60
2021/03/10 01:38:36;;;;;;;39.85;23.27;;;3.60;99.90;;;;;;5018802;28;20503;-58
2021/03/10 01:41:03;;;;;;;39.22;23.00;;;3.60;99.90;;;;;;5022056;28;20033;-60
2021/03/10 01:43:29;;;;;;;37.13;21.38;;;3.60;99.90;;;;;;5013997;28;20033;-58
2021/03/10 01:45:54;;;;;;;36.60;21.50;;;3.50;99.90;;;;;;5020919;28;20021;-58
2021/03/10 01:48:24;;;;;;;33.60;20.45;;;3.50;99.90;;;;;;5004343;28;20545;-60
2021/03/10 01:50:50;;;;;;;42.60;22.35;;;3.50;99.90;;;;;;5016782;28;20041;-59
2021/03/10 01:53:15;;;;;;;36.92;20.23;;;3.50;99.90;;;;;;5016891;28;20037;-59
2021/03/10 01:55:41;;;;;;;41.47;21.40;;;3.40;99.90;;;;;;5020624;28;20025;-60
2021/03/10 01:58:07;;;;;;;38.67;22.30;;;3.40;99.90;;;;;;5012832;28;20412;-59
2021/03/10 02:00:33;;;;;;;37.17;21.02;;;3.40;99.90;;;;;;5014248;28;20995;-58
2021/03/10 02:02:58;;;;;;;38.95;20.85;;;3.30;99.90;;;;;;5008683;28;20523;-57
2021/03/10 02:05:25;;;;;;;40.10;20.48;;;3.30;99.90;;;;;;4999871;28;20022;-59
2021/03/10 02:08:26;;;;;;;37.38;20.17;;;3.30;99.90;;;;;;5014332;28;20061;-57
2021/03/10 02:11:19;;;;;;;36.03;18.85;;;3.30;99.90;;;;;;5007072;28;20033;-59
2021/03/10 02:14:05;;;;;;;36.13;19.60;;;3.40;99.90;;;;;;5019374;28;20095;-58
2021/03/10 02:16:45;;;;;;;35.63;20.05;;;3.40;99.90;;;;;;5014061;28;20038;-59
2021/03/10 02:19:28;;;;;;;36.35;19.95;;;3.40;99.90;;;;;;5017243;28;20037;-58
2021/03/10 02:22:05;;;;;;;33.33;20.05;;;3.50;99.90;;;;;;5014451;28;20033;-58
2021/03/10 02:24:42;;;;;;;35.55;19.80;;;3.60;99.90;;;;;;5008151;28;20064;-59
2021/03/10 02:27:40;;;;;;;32.80;19.05;;;3.60;99.90;;;;;;5003810;28;20038;-58
2021/03/10 02:30:16;;;;;;;34.50;18.90;;;3.60;99.90;;;;;;5008265;28;20029;-59
2021/03/10 02:33:02;;;;;;;33.72;18.15;;;3.60;99.90;;;;;;5007656;28;20515;-59
2021/03/10 02:35:29;;;;;;;34.95;18.20;;;3.60;99.90;;;;;;5016389;28;20033;-59
2021/03/10 02:38:01;;;;;;;32.60;18.98;;;3.60;99.90;;;;;;5009026;28;20021;-60
2021/03/10 02:40:29;;;;;;;29.05;17.70;;;3.60;99.90;;;;;;5016664;28;20041;-59
2021/03/10 02:42:55;;;;;;;29.70;18.17;;;3.60;99.90;;;;;;5017109;28;20025;-59
2021/03/10 02:45:24;;;;;;;29.48;16.50;;;3.60;99.90;;;;;;5019210;28;20041;-59
2021/03/10 02:47:50;;;;;;;53.20;18.40;;;3.50;99.90;;;;;;5008058;28;20239;-59
2021/03/10 02:50:16;;;;;;;25.77;16.85;;;3.40;99.90;;;;;;5017554;28;20036;-60
2021/03/10 02:52:42;;;;;;;27.38;17.05;;;3.30;99.90;;;;;;5018332;28;20582;-60
2021/03/10 02:55:09;;;;;;;32.53;16.85;;;3.30;99.90;;;;;;5011168;28;20033;-59
2021/03/10 02:57:35;;;;;;;36.25;20.25;;;3.30;99.90;;;;;;5004800;28;20048;-60
2021/03/10 03:00:06;;;;;;;39.17;19.45;;;3.30;99.90;;;;;;5017232;28;20117;-59
2021/03/10 03:02:32;;;;;;;31.50;18.48;;;3.30;99.90;;;;;;4985777;28;20050;-60
2021/03/10 03:04:57;;;;;;;35.65;19.60;;;3.30;99.90;;;;;;5009141;28;20033;-60
2021/03/10 03:07:23;;;;;;;35.47;19.58;;;3.30;99.90;;;;;;5006925;28;20034;-60
2021/03/10 03:09:49;;;;;;;33.60;19.67;;;3.30;99.90;;;;;;5016764;28;20022;-60
2021/03/10 03:12:15;;;;;;;37.50;20.77;;;3.30;99.90;;;;;;5015670;28;20046;-60
2021/03/10 03:14:43;;;;;;;33.45;18.17;;;3.30;99.90;;;;;;5024269;28;20033;-61
2021/03/10 03:17:10;;;;;;;33.97;19.65;;;3.40;99.90;;;;;;5013764;28;20045;-61
2021/03/10 03:19:35;;;;;;;27.77;19.58;;;3.40;99.90;;;;;;5020601;28;20026;-60
2021/03/10 03:22:03;;;;;;;31.08;20.00;;;3.40;99.90;;;;;;5022400;28;20068;-59
2021/03/10 03:24:29;;;;;;;29.30;19.85;;;3.40;99.90;;;;;;4993625;28;20117;-59
2021/03/10 03:26:56;;;;;;;32.42;20.63;;;3.50;99.90;;;;;;5006196;28;20025;-59
2021/03/10 03:29:23;;;;;;;32.97;21.08;;;3.40;99.90;;;;;;5001595;28;20034;-61
2021/03/10 03:31:50;;;;;;;33.13;19.88;;;3.40;99.90;;;;;;5007279;28;20475;-59
2021/03/10 03:34:16;;;;;;;35.25;20.98;;;3.30;99.90;;;;;;5000984;28;20527;-58
2021/03/10 03:36:42;;;;;;;33.53;21.70;;;3.30;99.90;;;;;;5023820;28;20036;-60
2021/03/10 03:39:08;;;;;;;36.17;22.02;;;3.30;99.90;;;;;;5018376;28;20531;-59
2021/03/10 03:41:34;;;;;;;40.85;22.27;;;3.20;99.90;;;;;;5016328;28;20682;-59
2021/03/10 03:44:02;;;;;;;57.55;23.13;;;3.20;99.90;;;;;;5005605;28;20038;-60
2021/03/10 03:46:28;;;;;;;113.10;25.40;;;3.20;99.90;;;;;;5018543;28;20067;-60
2021/03/10 03:49:00;;;;;;;55.92;24.65;;;3.20;99.90;;;;;;5024869;28;20034;-59
2021/03/10 03:51:28;;;;;;;55.78;24.80;;;3.20;99.90;;;;;;5011480;28;20120;-59
2021/03/10 03:53:58;;;;;;;39.63;21.85;;;3.10;99.90;;;;;;5014335;28;20029;-59
2021/03/10 03:56:24;;;;;;;36.70;23.33;;;3.10;99.90;;;;;;5005013;28;20072;-58
2021/03/10 03:58:51;;;;;;;41.47;24.63;;;3.10;99.90;;;;;;5012388;28;20034;-58
2021/03/10 04:01:17;;;;;;;40.78;23.13;;;3.10;99.90;;;;;;4997666;28;20116;-61
2021/03/10 04:03:44;;;;;;;47.28;23.52;;;3.10;99.90;;;;;;5001930;28;20506;-59
2021/03/10 04:06:09;;;;;;;45.50;23.38;;;3.20;99.90;;;;;;5003365;28;20061;-60
2021/03/10 04:08:35;;;;;;;40.97;22.95;;;3.10;99.90;;;;;;5010616;28;20112;-58
2021/03/10 04:11:00;;;;;;;45.00;24.55;;;3.20;99.90;;;;;;5020636;28;20042;-60
2021/03/10 04:13:26;;;;;;;40.10;22.83;;;3.20;99.90;;;;;;5004186;28;20088;-58
2021/03/10 04:15:51;;;;;;;42.22;23.15;;;3.20;99.90;;;;;;5010003;28;20038;-61
2021/03/10 04:18:17;;;;;;;36.88;22.55;;;3.20;99.90;;;;;;4993078;28;20033;-60
2021/03/10 04:20:43;;;;;;;35.33;20.27;;;3.20;99.90;;;;;;5022721;28;20033;-57
2021/03/10 04:23:09;;;;;;;36.10;21.20;;;3.20;99.90;;;;;;5016052;28;20026;-60
2021/03/10 04:25:34;;;;;;;38.15;21.92;;;3.20;99.90;;;;;;5020086;28;20097;-60
2021/03/10 04:28:00;;;;;;;29.27;19.70;;;3.20;99.90;;;;;;5009780;28;20052;-60
2021/03/10 04:30:25;;;;;;;37.90;22.90;;;3.20;99.90;;;;;;5002777;28;20088;-58
2021/03/10 04:32:51;;;;;;;38.35;21.95;;;3.20;99.90;;;;;;4987894;28;20052;-58
2021/03/10 04:35:19;;;;;;;38.85;24.10;;;3.20;99.90;;;;;;5008610;28;20450;-60
2021/03/10 04:37:44;;;;;;;39.28;23.90;;;3.10;99.90;;;;;;5003049;28;20442;-59
2021/03/10 04:40:11;;;;;;;34.25;22.05;;;3.10;99.90;;;;;;5020476;28;20065;-61
2021/03/10 04:42:36;;;;;;;35.15;22.48;;;3.20;99.90;;;;;;5008831;28;20116;-60
2021/03/10 04:45:03;;;;;;;40.20;23.45;;;3.20;99.90;;;;;;5017960;28;20112;-59
2021/03/10 04:47:29;;;;;;;34.22;21.38;;;3.20;99.90;;;;;;5010266;28;20033;-60
2021/03/10 04:49:54;;;;;;;39.35;22.80;;;3.20;99.90;;;;;;5018646;28;20087;-60
2021/03/10 04:52:20;;;;;;;34.00;21.35;;;3.20;99.90;;;;;;5019050;28;20441;-58
2021/03/10 04:54:46;;;;;;;36.42;20.95;;;3.10;99.90;;;;;;4999594;28;20021;-60
2021/03/10 04:57:11;;;;;;;34.03;21.85;;;3.10;99.90;;;;;;5012105;28;20105;-60
2021/03/10 04:59:37;;;;;;;34.00;20.63;;;3.20;99.90;;;;;;5022572;28;20951;-58
2021/03/10 05:02:03;;;;;;;34.00;21.33;;;3.10;99.90;;;;;;5004600;28;20101;-59
2021/03/10 05:04:28;;;;;;;35.45;21.23;;;3.20;99.90;;;;;;5021149;28;20407;-58
2021/03/10 05:06:54;;;;;;;31.50;21.40;;;3.20;99.90;;;;;;4997594;28;20050;-59
2021/03/10 05:09:19;;;;;;;33.10;20.73;;;3.20;99.90;;;;;;5003707;28;20024;-60
2021/03/10 05:11:45;;;;;;;30.50;20.48;;;3.20;99.90;;;;;;5005950;28;20034;-58
2021/03/10 05:14:10;;;;;;;49.88;22.88;;;3.20;99.90;;;;;;5014737;28;20033;-60
2021/03/10 05:16:36;;;;;;;37.70;22.08;;;3.20;99.90;;;;;;5022241;28;20037;-59
2021/03/10 05:19:02;;;;;;;34.17;20.85;;;3.10;99.90;;;;;;5002641;28;20037;-60
2021/03/10 05:21:27;;;;;;;35.90;20.15;;;3.10;99.90;;;;;;5016821;28;20038;-60
2021/03/10 05:23:53;;;;;;;34.97;19.98;;;3.10;99.90;;;;;;5012381;28;20065;-57
2021/03/10 05:26:18;;;;;;;31.48;19.73;;;3.10;99.90;;;;;;5012991;28;20022;-60
2021/03/10 05:28:44;;;;;;;36.80;21.95;;;3.10;99.90;;;;;;4994978;28;20469;-59
2021/03/10 05:31:10;;;;;;;32.88;21.08;;;3.10;99.90;;;;;;5005049;28;20038;-60
2021/03/10 05:33:35;;;;;;;34.75;20.83;;;3.10;99.90;;;;;;4986628;28;20060;-59
2021/03/10 05:36:02;;;;;;;35.72;21.95;;;3.10;99.90;;;;;;4991268;28;20034;-60
2021/03/10 05:38:30;;;;;;;32.10;21.27;;;3.10;99.90;;;;;;5008692;28;20041;-59
2021/03/10 05:40:58;;;;;;;33.80;21.67;;;3.20;99.90;;;;;;4998152;28;20025;-60
2021/03/10 05:43:23;;;;;;;32.78;20.55;;;3.20;99.90;;;;;;5004777;28;20503;-60
2021/03/10 05:45:49;;;;;;;32.55;20.48;;;3.20;99.90;;;;;;5008621;28;20066;-60
2021/03/10 05:48:15;;;;;;;33.55;21.20;;;3.20;99.90;;;;;;5009390;28;20034;-60
2021/03/10 05:50:40;;;;;;;30.15;19.98;;;3.30;99.90;;;;;;5018155;28;20505;-61
2021/03/10 05:53:10;;;;;;;32.45;21.30;;;3.30;99.90;;;;;;5020804;28;20033;-59
2021/03/10 05:55:35;;;;;;;38.45;21.52;;;3.30;99.90;;;;;;5018426;28;20089;-60
2021/03/10 05:58:01;;;;;;;32.33;21.25;;;3.30;99.90;;;;;;5017224;28;20451;-61
2021/03/10 06:00:26;;;;;;;32.88;21.60;;;3.40;99.90;;;;;;5008298;28;20129;-61
2021/03/10 06:02:52;;;;;;;35.35;22.15;;;3.40;99.90;;;;;;5017443;28;20445;-60
2021/03/10 06:05:22;;;;;;;33.97;21.80;;;3.40;99.90;;;;;;5013683;28;20034;-59
2021/03/10 06:08:09;;;;;;;34.30;21.30;;;3.40;99.90;;;;;;5011924;28;20025;-59
2021/03/10 06:10:53;;;;;;;36.92;23.42;;;3.40;99.90;;;;;;5015458;28;20068;-59
2021/03/10 06:13:22;;;;;;;35.70;22.33;;;3.40;99.90;;;;;;5017127;28;20033;-60
2021/03/10 06:15:48;;;;;;;38.47;23.08;;;3.50;99.90;;;;;;5013423;28;20499;-58
2021/03/10 06:18:27;;;;;;;36.92;22.90;;;3.50;99.90;;;;;;5009435;28;20522;-59
2021/03/10 06:21:18;;;;;;;36.60;21.45;;;3.50;99.90;;;;;;5012401;28;20400;-61
2021/03/10 06:24:04;;;;;;;40.90;24.65;;;3.60;99.90;;;;;;5011246;28;20022;-58
2021/03/10 06:26:34;;;;;;;35.00;23.15;;;3.60;99.90;;;;;;5016400;28;20044;-57
2021/03/10 06:29:02;;;;;;;36.38;22.02;;;3.60;99.90;;;;;;5021836;28;20029;-59
2021/03/10 06:31:34;;;;;;;34.58;21.80;;;3.60;99.90;;;;;;5017936;28;20049;-60
2021/03/10 06:34:07;;;;;;;34.42;21.23;;;3.70;99.90;;;;;;4954495;28;20128;-61
2021/03/10 06:36:43;;;;;;;34.28;22.25;;;3.70;99.90;;;;;;4996557;28;20495;-60
2021/03/10 06:39:12;;;;;;;31.38;20.20;;;3.70;99.90;;;;;;5007898;28;20034;-61
2021/03/10 06:41:43;;;;;;;32.72;23.17;;;3.70;99.90;;;;;;5009336;28;20064;-59
2021/03/10 06:44:23;;;;;;;31.38;21.08;;;3.70;99.90;;;;;;5005109;28;20510;-61
2021/03/10 06:47:09;;;;;;;34.03;22.00;;;3.70;99.90;;;;;;5001835;28;20120;-60
2021/03/10 06:49:35;;;;;;;37.15;22.35;;;3.80;99.90;;;;;;5006842;28;20119;-60
2021/03/10 06:52:07;;;;;;;31.83;20.88;;;3.80;99.90;;;;;;5015214;28;20030;-61
2021/03/10 06:54:33;;;;;;;38.30;21.60;;;3.80;99.90;;;;;;5006878;28;20026;-61
2021/03/10 06:57:02;;;;;;;32.78;20.77;;;3.90;99.90;;;;;;5021517;28;20033;-60
2021/03/10 06:59:46;;;;;;;32.03;21.98;;;3.90;99.90;;;;;;5012364;28;20035;-59
2021/03/10 07:02:19;;;;;;;36.50;22.88;;;3.90;99.90;;;;;;5007638;28;20083;-59
2021/03/10 07:04:47;;;;;;;32.05;20.23;;;4.00;99.90;;;;;;5003934;28;20112;-60
2021/03/10 07:07:16;;;;;;;30.90;19.70;;;4.10;99.90;;;;;;5006879;28;20396;-61
2021/03/10 07:09:42;;;;;;;30.05;20.77;;;4.10;99.90;;;;;;4971808;28;20033;-60
2021/03/10 07:12:09;;;;;;;28.73;20.30;;;4.20;99.90;;;;;;5014579;28;20442;-60
2021/03/10 07:14:36;;;;;;;29.65;19.83;;;4.20;99.90;;;;;;5010493;28;20034;-61
2021/03/10 07:17:12;;;;;;;28.42;19.80;;;4.30;99.90;;;;;;5012572;28;20206;-59
2021/03/10 07:19:38;;;;;;;32.00;21.00;;;4.30;99.90;;;;;;5021444;28;20025;-62
2021/03/10 07:22:12;;;;;;;27.05;18.83;;;4.30;99.90;;;;;;5017710;28;20520;-60
2021/03/10 07:24:46;;;;;;;29.67;19.23;;;4.50;99.90;;;;;;5006949;28;20062;-60
2021/03/10 07:27:15;;;;;;;32.40;20.17;;;4.60;99.90;;;;;;5016967;28;20249;-59
2021/03/10 07:29:41;;;;;;;31.15;18.42;;;4.70;99.90;;;;;;5026714;28;20021;-61
2021/03/10 07:32:08;;;;;;;26.42;18.23;;;4.80;99.90;;;;;;5015130;28;20027;-61
2021/03/10 07:34:36;;;;;;;34.40;22.55;;;4.90;99.90;;;;;;4960937;28;20080;-61
2021/03/10 07:37:15;;;;;;;34.05;22.30;;;4.90;99.90;;;;;;5008003;28;20022;-62
2021/03/10 07:39:41;;;;;;;29.60;18.98;;;4.90;99.90;;;;;;5013374;28;20496;-60
2021/03/10 07:42:09;;;;;;;29.55;18.92;;;5.00;99.90;;;;;;5010724;28;20030;-59
2021/03/10 07:44:35;;;;;;;28.48;18.55;;;5.00;99.90;;;;;;5024311;28;20030;-61
2021/03/10 07:47:12;;;;;;;27.60;19.42;;;5.00;99.90;;;;;;5006947;28;20136;-60
2021/03/10 07:49:39;;;;;;;28.33;19.30;;;5.00;99.90;;;;;;5012231;28;20030;-60
2021/03/10 07:52:10;;;;;;;27.17;18.85;;;5.00;99.90;;;;;;5009898;28;20034;-61
2021/03/10 07:54:38;;;;;;;30.63;19.15;;;5.10;99.90;;;;;;5011480;28;20038;-60
2021/03/10 07:57:05;;;;;;;31.35;19.30;;;5.10;99.90;;;;;;5024797;28;20479;-61
2021/03/10 07:59:31;;;;;;;28.60;19.50;;;5.10;99.90;;;;;;5005932;28;20096;-58
2021/03/10 08:02:04;;;;;;;37.88;27.05;;;5.10;99.90;;;;;;5018522;28;20108;-58
2021/03/10 08:04:30;;;;;;;28.17;19.53;;;5.10;99.90;;;;;;5014887;28;20033;-59
2021/03/10 08:06:56;;;;;;;30.05;20.05;;;5.10;99.90;;;;;;5024733;28;20360;-61
2021/03/10 08:09:24;;;;;;;28.38;19.40;;;5.10;99.90;;;;;;5012108;28;20022;-61
2021/03/10 08:12:10;;;;;;;28.88;18.67;;;5.20;99.90;;;;;;5018084;28;20021;-61
2021/03/10 08:14:41;;;;;;;29.77;19.92;;;5.20;99.90;;;;;;5023258;28;20042;-59
2021/03/10 08:17:08;;;;;;;29.85;19.13;;;5.30;99.90;;;;;;5019784;28;20036;-60
2021/03/10 08:19:34;;;;;;;30.10;18.23;;;5.40;99.90;;;;;;5018402;28;20053;-61
2021/03/10 08:22:00;;;;;;;29.63;18.90;;;5.40;99.90;;;;;;5017375;28;20026;-61
2021/03/10 08:24:27;;;;;;;28.02;18.73;;;5.40;99.90;;;;;;5013372;28;20041;-61
2021/03/10 08:26:58;;;;;;;31.30;19.95;;;5.50;99.90;;;;;;5017112;28;20061;-58
2021/03/10 08:29:24;;;;;;;28.40;19.17;;;5.40;99.90;;;;;;5026713;28;20036;-62
2021/03/10 08:31:57;;;;;;;36.33;21.50;;;5.50;99.90;;;;;;5019221;28;20040;-61
2021/03/10 08:34:34;;;;;;;30.50;20.13;;;5.50;99.90;;;;;;4974127;28;20069;-61
2021/03/10 08:37:01;;;;;;;33.35;19.70;;;5.60;99.90;;;;;;5012116;28;20026;-59
2021/03/10 08:39:27;;;;;;;29.92;19.38;;;5.70;99.90;;;;;;5028226;28;20029;-60
2021/03/10 08:41:54;;;;;;;30.20;19.20;;;5.70;99.90;;;;;;5016888;28;20494;-60
2021/03/10 08:44:23;;;;;;;31.77;19.52;;;5.70;99.90;;;;;;5014186;28;20030;-60
2021/03/10 08:46:51;;;;;;;29.95;18.27;;;5.80;99.90;;;;;;5006233;28;20025;-61
2021/03/10 08:49:24;;;;;;;30.17;17.95;;;5.80;99.90;;;;;;5010955;28;20029;-61
2021/03/10 08:52:02;;;;;;;28.30;19.67;;;5.80;99.90;;;;;;5013796;28;20147;-59
2021/03/10 08:54:27;;;;;;;30.35;19.23;;;5.90;99.90;;;;;;5011282;28;20030;-58
2021/03/10 08:56:53;;;;;;;29.67;19.25;;;5.90;99.90;;;;;;5015576;28;20074;-61
2021/03/10 08:59:18;;;;;;;27.20;18.48;;;6.00;99.90;;;;;;5011090;28;20042;-59
2021/03/10 09:01:51;;;;;;;26.00;17.52;;;6.10;99.90;;;;;;5022909;28;20035;-61
2021/03/10 09:04:25;;;;;;;33.25;20.17;;;6.00;99.90;;;;;;5017827;28;20079;-61
2021/03/10 09:06:52;;;;;;;28.85;18.35;;;6.10;99.90;;;;;;5007761;28;20089;-61
2021/03/10 09:09:19;;;;;;;32.10;19.75;;;6.10;99.90;;;;;;5017427;28;20026;-61
2021/03/10 09:11:45;;;;;;;32.03;20.15;;;6.10;99.90;;;;;;5019952;28;20219;-61
2021/03/10 09:14:12;;;;;;;27.25;18.23;;;6.20;99.90;;;;;;5021765;28;20076;-60
2021/03/10 09:16:49;;;;;;;28.40;18.83;;;6.20;99.90;;;;;;5003578;28;20511;-61
2021/03/10 09:19:15;;;;;;;29.90;19.48;;;6.40;99.90;;;;;;5017527;28;20112;-60
2021/03/10 09:21:41;;;;;;;33.70;19.08;;;6.40;99.90;;;;;;5012574;28;20113;-60
2021/03/10 09:24:07;;;;;;;27.55;18.67;;;6.50;99.90;;;;;;5012775;28;20026;-62
2021/03/10 09:26:39;;;;;;;28.55;19.30;;;6.50;99.90;;;;;;5012183;28;20079;-61
2021/03/10 09:29:05;;;;;;;35.92;21.05;;;6.70;99.90;;;;;;5023887;28;20025;-62
2021/03/10 09:31:31;;;;;;;31.30;19.88;;;6.90;99.90;;;;;;5013815;28;20128;-60
2021/03/10 09:34:06;;;;;;;31.30;20.10;;;7.00;99.90;;;;;;4993599;28;20108;-61
2021/03/10 09:36:32;;;;;;;33.72;21.55;;;7.20;99.90;;;;;;5005043;28;20100;-60
2021/03/10 09:38:59;;;;;;;34.47;21.30;;;7.40;99.90;;;;;;5005889;28;20447;-62
2021/03/10 09:41:26;;;;;;;33.55;20.45;;;7.60;99.90;;;;;;5016763;28;20026;-61
2021/03/10 09:44:08;;;;;;;30.08;19.95;;;7.70;99.90;;;;;;5006781;28;20057;-60
2021/03/10 09:46:41;;;;;;;33.47;21.52;;;7.90;99.90;;;;;;5004892;28;20097;-60
2021/03/10 09:49:08;;;;;;;33.22;19.02;;;8.00;99.90;;;;;;5014781;28;20026;-61
2021/03/10 09:51:48;;;;;;;33.92;22.52;;;8.20;99.90;;;;;;5012867;28;20069;-60
2021/03/10 09:54:13;;;;;;;29.80;20.23;;;8.40;99.90;;;;;;5015597;28;20113;-61
2021/03/10 09:56:49;;;;;;;29.02;19.80;;;8.50;99.90;;;;;;5022655;28;20610;-62
2021/03/10 09:59:15;;;;;;;30.60;20.35;;;8.40;99.90;;;;;;5011210;28;20632;-60
2021/03/10 10:01:45;;;;;;;35.20;21.88;;;8.50;99.90;;;;;;5006861;28;20045;-61
2021/03/10 10:04:12;;;;;;;36.47;23.38;;;8.60;99.90;;;;;;5010093;28;20029;-61
2021/03/10 10:06:51;;;;;;;34.45;23.90;;;8.90;99.90;;;;;;5018941;28;20030;-61
2021/03/10 10:09:17;;;;;;;30.58;21.13;;;9.20;99.90;;;;;;5014869;28;20498;-60
2021/03/10 10:11:42;;;;;;;33.85;22.52;;;9.20;99.90;;;;;;5008383;28;20030;-61
2021/03/10 10:14:08;;;;;;;35.40;22.77;;;9.60;99.90;;;;;;5006107;28;20026;-61
2021/03/10 10:16:39;;;;;;;38.10;23.95;;;9.80;99.90;;;;;;5007378;28;20045;-61
2021/03/10 10:19:05;;;;;;;41.80;25.50;;;9.80;99.90;;;;;;5014145;28;20137;-60
2021/03/10 10:21:31;;;;;;;39.08;23.85;;;10.00;99.90;;;;;;5015786;28;20037;-58
2021/03/10 10:23:57;;;;;;;34.88;24.05;;;10.10;99.90;;;;;;5008626;28;20018;-62
2021/03/10 10:26:22;;;;;;;38.22;25.95;;;10.30;99.90;;;;;;4985243;28;20065;-62
2021/03/10 10:28:48;;;;;;;35.83;25.20;;;10.30;99.90;;;;;;5011470;28;20032;-61
2021/03/10 10:31:14;;;;;;;45.38;28.85;;;10.30;99.90;;;;;;5006499;28;20033;-63
2021/03/10 10:33:39;;;;;;;40.83;26.25;;;10.10;99.90;;;;;;5020041;28;20072;-62
2021/03/10 10:36:06;;;;;;;42.15;30.27;;;10.30;99.90;;;;;;4958247;28;20046;-62
2021/03/10 10:38:31;;;;;;;39.08;25.95;;;10.50;99.90;;;;;;5006881;28;20756;-61
2021/03/10 10:40:57;;;;;;;39.83;25.63;;;10.50;99.90;;;;;;5013649;28;20062;-61
2021/03/10 10:43:22;;;;;;;34.00;24.05;;;10.70;99.90;;;;;;5014256;28;20121;-62
2021/03/10 10:45:48;;;;;;;36.90;26.45;;;10.90;99.90;;;;;;5002333;28;20088;-62
2021/03/10 10:48:13;;;;;;;38.00;25.05;;;10.60;99.90;;;;;;5009471;28;20053;-62
2021/03/10 10:50:39;;;;;;;38.58;26.02;;;10.40;99.90;;;;;;5020641;28;20083;-63
2021/03/10 10:53:04;;;;;;;39.15;24.77;;;10.50;99.90;;;;;;5021306;28;20431;-62
2021/03/10 10:55:30;;;;;;;36.10;24.23;;;10.90;99.90;;;;;;5020919;28;20904;-62
2021/03/10 10:57:57;;;;;;;33.38;23.85;;;11.10;99.90;;;;;;5016598;28;20060;-62
2021/03/10 11:00:25;;;;;;;37.28;24.73;;;11.20;99.90;;;;;;5012120;28;20030;-62
2021/03/10 11:02:51;;;;;;;37.53;25.80;;;11.00;99.90;;;;;;5012658;28;20021;-62
2021/03/10 11:05:17;;;;;;;34.50;25.00;;;11.20;99.90;;;;;;5021792;28;20483;-61
2021/03/10 11:07:42;;;;;;;32.85;23.15;;;11.40;99.90;;;;;;5010964;28;20021;-62
2021/03/10 11:10:08;;;;;;;35.90;22.73;;;11.60;99.90;;;;;;5004505;28;20031;-63
2021/03/10 11:12:34;;;;;;;33.33;23.02;;;11.40;99.90;;;;;;5013668;28;20076;-63
2021/03/10 11:15:00;;;;;;;34.40;23.67;;;11.40;99.90;;;;;;5006743;28;20033;-62
2021/03/10 11:17:25;;;;;;;38.05;23.98;;;11.10;99.90;;;;;;5007871;28;20113;-62
2021/03/10 11:19:51;;;;;;;33.92;21.88;;;11.00;99.90;;;;;;5015706;28;20026;-61
2021/03/10 11:22:17;;;;;;;33.08;21.70;;;11.00;99.90;;;;;;5011346;28;20040;-62
2021/03/10 11:24:43;;;;;;;36.67;23.90;;;11.30;99.90;;;;;;5010618;28;20033;-61
2021/03/10 11:27:08;;;;;;;39.72;23.65;;;11.50;99.90;;;;;;4999454;28;20037;-62
2021/03/10 11:29:34;;;;;;;32.88;21.95;;;11.20;99.90;;;;;;5003583;28;20761;-62
2021/03/10 11:32:03;;;;;;;37.47;25.33;;;11.00;99.90;;;;;;5001211;28;20025;-62
2021/03/10 11:34:30;;;;;;;31.85;20.73;;;11.00;99.90;;;;;;4960043;28;21114;-60
2021/03/10 11:36:56;;;;;;;27.75;20.17;;;11.30;99.90;;;;;;5001980;28;20030;-61
2021/03/10 11:39:22;;;;;;;29.35;20.17;;;11.60;99.90;;;;;;5002443;28;20079;-62
2021/03/10 11:41:48;;;;;;;51.85;30.15;;;11.40;99.90;;;;;;5005063;28;20059;-62
2021/03/10 11:44:13;;;;;;;54.92;31.15;;;11.20;99.90;;;;;;5009879;28;20041;-60
2021/03/10 11:46:39;;;;;;;46.60;26.35;;;11.20;99.90;;;;;;5002016;28;20441;-62
2021/03/10 11:49:05;;;;;;;41.65;24.70;;;11.10;99.90;;;;;;5008036;28;20037;-62
2021/03/10 11:51:31;;;;;;;42.40;28.13;;;11.10;99.90;;;;;;5003431;28;20125;-62
2021/03/10 11:53:56;;;;;;;27.42;19.52;;;11.30;99.90;;;;;;5008844;28;20028;-63
2021/03/10 11:56:22;;;;;;;26.85;19.02;;;11.30;99.90;;;;;;5010708;28;20042;-61
2021/03/10 11:58:48;;;;;;;35.55;22.85;;;11.40;99.90;;;;;;5007407;28;20030;-60
2021/03/10 12:01:13;;;;;;;28.17;18.92;;;11.30;99.90;;;;;;5006893;28;20559;-60
2021/03/10 12:03:39;;;;;;;27.65;18.05;;;11.30;99.90;;;;;;5015940;28;20057;-61
2021/03/10 12:06:05;;;;;;;36.63;23.55;;;11.60;99.90;;;;;;5018398;28;20428;-62
2021/03/10 12:08:31;;;;;;;49.47;28.40;;;11.80;99.90;;;;;;5016931;28;20072;-62
2021/03/10 12:10:57;;;;;;;26.90;18.10;;;11.70;99.90;;;;;;5022160;28;20026;-62
2021/03/10 12:13:25;;;;;;;28.60;17.75;;;11.70;99.90;;;;;;5019788;28;20085;-61
2021/03/10 12:15:51;;;;;;;31.67;20.75;;;11.80;99.90;;;;;;5017469;28;20053;-62
2021/03/10 12:18:17;;;;;;;25.30;17.08;;;11.80;99.90;;;;;;5017657;28;20116;-62
2021/03/10 12:20:42;;;;;;;40.25;25.48;;;12.00;99.90;;;;;;5012419;28;20109;-60
2021/03/10 12:23:08;;;;;;;29.00;18.08;;;12.10;99.90;;;;;;5003244;28;20136;-61
2021/03/10 12:25:34;;;;;;;36.45;22.80;;;12.20;99.90;;;;;;5014327;28;20638;-62
2021/03/10 12:27:59;;;;;;;31.67;20.13;;;12.20;99.90;;;;;;5018515;28;20100;-61
2021/03/10 12:30:25;;;;;;;22.50;16.33;;;12.20;99.90;;;;;;5013715;28;20052;-59
2021/03/10 12:32:51;;;;;;;22.40;15.40;;;12.40;99.90;;;;;;5014496;28;20087;-61
2021/03/10 12:35:18;;;;;;;25.63;15.13;;;12.40;99.90;;;;;;4967429;28;20050;-61
2021/03/10 12:37:44;;;;;;;22.40;15.73;;;12.80;99.90;;;;;;5005907;28;20503;-62
2021/03/10 12:40:11;;;;;;;25.52;15.77;;;12.90;99.70;;;;;;4998309;28;20419;-60